createdAt,value
2022-09-23T00:01:27.817Z,79.59
2022-09-23T00:03:59.338Z,79.69
2022-09-23T00:06:30.265Z,79.68
2022-09-23T00:08:58.557Z,79.58
2022-09-23T00:11:28.706Z,79.59
2022-09-23T00:13:59.900Z,79.51
2022-09-23T00:16:31.193Z,79.32
2022-09-23T00:19:01.115Z,79.29
2022-09-23T00:21:29.374Z,79.12
2022-09-23T00:23:57.693Z,79.09
2022-09-23T00:26:25.860Z,79.04
2022-09-23T00:28:54.121Z,79.02
2022-09-23T00:31:25.492Z,79.09
2022-09-23T00:34:01.543Z,79.22
2022-09-23T00:36:32.425Z,79.34
2022-09-23T00:39:01.041Z,79.35
2022-09-23T00:41:29.270Z,79.50
2022-09-23T00:44:00.584Z,79.29
2022-09-23T00:46:28.880Z,79.27
2022-09-23T00:49:05.337Z,79.30
2022-09-23T00:51:40.246Z,79.21
2022-09-23T00:54:08.954Z,78.98
2022-09-23T00:56:38.922Z,79.06
2022-09-23T00:59:09.947Z,79.20
2022-09-23T01:03:07.162Z,79.20
2022-09-23T01:05:36.491Z,79.05
2022-09-23T01:08:04.947Z,78.88
2022-09-23T01:11:14.386Z,78.77
2022-09-23T01:14:19.936Z,78.94
2022-09-23T01:17:13.587Z,78.93
2022-09-23T01:20:08.937Z,78.81
2022-09-23T01:22:54.097Z,78.88
2022-09-23T01:26:07.206Z,79.04
2022-09-23T01:28:55.872Z,79.10
2022-09-23T01:31:37.812Z,78.98
2022-09-23T01:34:06.276Z,78.96
2022-09-23T01:36:59.861Z,78.99
2022-09-23T01:39:45.643Z,78.91
2022-09-23T01:42:24.100Z,78.87
2022-09-23T01:45:19.806Z,78.99
2022-09-23T01:48:18.381Z,79.08
2022-09-23T01:51:15.453Z,79.24
2022-09-23T01:53:46.545Z,79.36
2022-09-23T01:56:31.299Z,79.04
2022-09-23T01:59:29.157Z,79.16
2022-09-23T02:02:05.874Z,79.12
2022-09-23T02:04:49.271Z,79.04
2022-09-23T02:07:28.945Z,79.23
2022-09-23T02:10:10.305Z,79.28
2022-09-23T02:12:42.329Z,79.12
2022-09-23T02:15:16.355Z,79.03
2022-09-23T02:17:54.418Z,78.86
2022-09-23T02:20:28.583Z,78.83
2022-09-23T02:23:10.453Z,78.72
2022-09-23T02:26:03.136Z,78.65
2022-09-23T02:28:55.376Z,78.64
2022-09-23T02:31:41.671Z,78.51
2022-09-23T02:34:24.507Z,78.68
2022-09-23T02:37:14.468Z,78.70
2022-09-23T02:39:54.595Z,78.62
2022-09-23T02:42:31.076Z,78.73
2022-09-23T02:44:59.241Z,78.52
2022-09-23T02:47:31.879Z,78.59
2022-09-23T02:50:00.284Z,78.86
2022-09-23T02:52:28.858Z,79.20
2022-09-23T02:54:57.546Z,79.43
2022-09-23T02:57:25.788Z,79.44
2022-09-23T02:59:53.958Z,79.31
2022-09-23T03:02:40.398Z,78.97
2022-09-23T03:05:40.201Z,78.65
2022-09-23T03:08:27.455Z,78.71
2022-09-23T03:11:04.413Z,79.07
2022-09-23T03:13:42.865Z,79.23
2022-09-23T03:16:20.330Z,79.10
2022-09-23T03:19:09.350Z,79.28
2022-09-23T03:21:50.358Z,79.32
2022-09-23T03:24:21.277Z,79.29
2022-09-23T03:26:51.814Z,79.35
2022-09-23T03:29:23.611Z,79.28
2022-09-23T03:31:53.586Z,79.19
2022-09-23T03:34:27.273Z,79.07
2022-09-23T03:37:00.790Z,79.15
2022-09-23T03:39:43.429Z,78.94
2022-09-23T03:42:18.883Z,79.12
2022-09-23T03:44:49.087Z,79.22
2022-09-23T03:47:18.676Z,79.20
2022-09-23T03:49:49.117Z,79.21
2022-09-23T03:52:19.141Z,78.99
2022-09-23T03:54:47.813Z,78.86
2022-09-23T03:57:15.896Z,78.86
2022-09-23T03:59:44.196Z,78.46
2022-09-23T04:02:12.423Z,78.23
2022-09-23T04:04:41.205Z,78.49
2022-09-23T04:07:11.142Z,78.89
2022-09-23T04:09:39.482Z,79.06
2022-09-23T04:12:08.330Z,79.22
2022-09-23T04:14:36.677Z,79.11
2022-09-23T04:17:05.114Z,79.54
2022-09-23T04:19:33.267Z,79.87
2022-09-23T04:22:01.694Z,80.02
2022-09-23T04:24:29.972Z,80.16
2022-09-23T04:26:58.453Z,80.28
2022-09-23T04:29:27.119Z,80.54
2022-09-23T04:31:55.639Z,80.82
2022-09-23T04:34:23.843Z,80.92
2022-09-23T04:36:52.012Z,81.00
2022-09-23T04:39:20.276Z,81.01
2022-09-23T04:41:48.367Z,81.04
2022-09-23T04:44:16.442Z,80.91
2022-09-23T04:46:48.213Z,80.57
2022-09-23T04:49:16.908Z,80.69
2022-09-23T04:51:45.748Z,80.94
2022-09-23T04:54:15.477Z,81.10
2022-09-23T04:56:43.817Z,81.46
2022-09-23T04:59:12.037Z,81.52
2022-09-23T05:01:40.283Z,81.58
2022-09-23T05:04:14.171Z,81.53
2022-09-23T05:06:45.243Z,81.66
2022-09-23T05:09:17.579Z,81.73
2022-09-23T05:11:46.016Z,81.59
2022-09-23T05:14:14.345Z,81.47
2022-09-23T05:16:42.613Z,81.36
2022-09-23T05:19:13.473Z,81.34
2022-09-23T05:21:41.704Z,81.23
2022-09-23T05:24:10.043Z,81.43
2022-09-23T05:26:38.454Z,81.67
2022-09-23T05:29:06.616Z,81.82
2022-09-23T05:31:35.331Z,82.13
2022-09-23T05:34:05.688Z,82.26
2022-09-23T05:36:38.357Z,81.96
2022-09-23T05:39:08.663Z,81.86
2022-09-23T05:41:36.927Z,81.44
2022-09-23T05:44:05.223Z,81.40
2022-09-23T05:46:34.276Z,81.52
2022-09-23T05:49:04.331Z,81.70
2022-09-23T05:51:35.029Z,81.97
2022-09-23T05:54:07.399Z,82.38
2022-09-23T05:56:37.245Z,82.31
2022-09-23T05:59:06.073Z,82.45
2022-09-23T06:01:36.758Z,82.24
2022-09-23T06:04:06.808Z,82.47
2022-09-23T06:06:41.766Z,82.44
2022-09-23T06:09:16.295Z,82.40
2022-09-23T06:11:44.680Z,82.33
2022-09-23T06:14:14.926Z,82.38
2022-09-23T06:16:43.379Z,83.01
2022-09-23T06:19:12.150Z,83.26
2022-09-23T06:21:40.938Z,82.64
2022-09-23T06:24:12.485Z,82.72
2022-09-23T06:26:41.732Z,82.77
2022-09-23T06:29:11.989Z,82.87
2022-09-23T06:31:41.635Z,83.26
2022-09-23T06:34:14.679Z,83.48
2022-09-23T06:36:46.102Z,83.52
2022-09-23T06:39:15.667Z,83.97
2022-09-23T06:41:45.315Z,83.81
2022-09-23T06:44:15.033Z,83.84
2022-09-23T06:46:44.156Z,83.33
2022-09-23T06:49:14.951Z,82.84
2022-09-23T06:51:43.126Z,82.92
2022-09-23T06:54:11.392Z,83.13
2022-09-23T06:56:40.311Z,83.07
2022-09-23T06:59:13.107Z,83.56
2022-09-23T07:01:41.734Z,83.88
2022-09-23T07:04:10.738Z,83.77
2022-09-23T07:06:39.223Z,84.00
2022-09-23T07:09:08.591Z,84.28
2022-09-23T07:11:37.223Z,84.92
2022-09-23T07:14:05.733Z,85.46
2022-09-23T07:16:34.088Z,85.07
2022-09-23T07:19:02.655Z,84.90
2022-09-23T07:21:30.802Z,84.70
2022-09-23T07:23:59.208Z,85.18
2022-09-23T07:26:27.837Z,85.58
2022-09-23T07:28:56.993Z,86.03
2022-09-23T07:31:37.165Z,86.22
2022-09-23T07:34:10.684Z,86.19
2022-09-23T07:36:40.950Z,85.79
2022-09-23T07:39:12.201Z,86.05
2022-09-23T07:41:44.297Z,84.44
2022-09-23T07:44:12.684Z,84.51
2022-09-23T07:46:41.225Z,84.00
2022-09-23T07:49:10.638Z,83.38
2022-09-23T07:51:40.526Z,83.38
2022-09-23T07:54:12.877Z,83.29
2022-09-23T07:56:42.593Z,82.30
2022-09-23T07:59:18.436Z,82.62
2022-09-23T08:01:50.902Z,82.77
2022-09-23T08:04:23.664Z,82.73
2022-09-23T08:06:54.998Z,81.63
2022-09-23T08:09:26.568Z,81.88
2022-09-23T08:11:55.427Z,82.72
2022-09-23T08:14:24.164Z,82.75
2022-09-23T08:16:52.428Z,82.23
2022-09-23T08:19:21.273Z,81.38
2022-09-23T08:21:49.965Z,80.73
2022-09-23T08:24:20.869Z,80.71
2022-09-23T08:26:49.298Z,80.84
2022-09-23T08:29:19.250Z,80.89
2022-09-23T08:31:48.180Z,80.76
2022-09-23T08:34:18.350Z,79.85
2022-09-23T08:36:47.294Z,79.03
2022-09-23T08:39:17.495Z,78.18
2022-09-23T08:41:58.357Z,77.90
2022-09-23T08:44:45.381Z,77.73
2022-09-23T08:47:19.599Z,78.50
2022-09-23T08:50:00.721Z,78.71
2022-09-23T08:52:58.975Z,78.21
2022-09-23T08:55:34.381Z,77.54
2022-09-23T08:58:27.189Z,76.73
2022-09-23T09:01:21.237Z,76.76
2022-09-23T09:03:54.142Z,76.76
2022-09-23T09:06:53.645Z,76.93
2022-09-23T09:09:49.133Z,77.05
2022-09-23T09:12:22.810Z,76.78
2022-09-23T09:15:07.193Z,77.09
2022-09-23T09:17:53.191Z,76.81
2022-09-23T09:20:23.431Z,75.26
2022-09-23T09:23:00.643Z,75.73
2022-09-23T09:25:49.557Z,75.27
2022-09-23T09:28:35.921Z,75.01
2022-09-23T09:31:29.226Z,75.25
2022-09-23T09:34:28.797Z,74.54
2022-09-23T09:37:33.105Z,73.65
2022-09-23T09:40:02.158Z,72.97
2022-09-23T09:42:41.841Z,72.12
2022-09-23T09:45:14.575Z,71.63
2022-09-23T09:47:56.908Z,71.66
2022-09-23T09:50:47.182Z,71.72
2022-09-23T09:53:22.108Z,72.18
2022-09-23T09:56:05.541Z,72.64
2022-09-23T09:58:58.511Z,72.65
2022-09-23T10:01:31.964Z,72.69
2022-09-23T10:04:22.073Z,73.16
2022-09-23T10:07:12.513Z,73.61
2022-09-23T10:09:48.799Z,74.52
2022-09-23T10:12:19.947Z,73.61
2022-09-23T10:14:53.562Z,74.27
2022-09-23T10:17:32.167Z,74.30
2022-09-23T10:20:07.146Z,72.68
2022-09-23T10:22:42.541Z,72.50
2022-09-23T10:25:21.050Z,71.38
2022-09-23T10:27:49.191Z,70.36
2022-09-23T10:30:21.881Z,68.70
2022-09-23T10:32:53.207Z,69.30
2022-09-23T10:35:24.604Z,68.06
2022-09-23T10:37:54.979Z,66.97
2022-09-23T10:40:59.620Z,67.04
2022-09-23T10:44:04.262Z,67.29
2022-09-23T10:47:00.943Z,67.29
2022-09-23T10:50:08.254Z,66.46
2022-09-23T10:53:02.910Z,67.26
2022-09-23T10:55:53.843Z,66.15
2022-09-23T10:58:59.899Z,65.68
2022-09-23T11:01:31.238Z,65.46
2022-09-23T11:04:18.757Z,63.52
2022-09-23T11:07:37.264Z,64.01
2022-09-23T11:10:29.149Z,64.10
2022-09-23T11:13:22.405Z,62.86
2022-09-23T11:16:18.626Z,62.19
2022-09-23T11:18:58.630Z,62.20
2022-09-23T11:21:56.285Z,62.27
2022-09-23T11:24:58.324Z,62.49
2022-09-23T11:27:45.226Z,62.36
2022-09-23T11:30:18.155Z,62.87
2022-09-23T11:33:14.505Z,62.94
2022-09-23T11:35:42.766Z,63.22
2022-09-23T11:38:15.103Z,63.99
2022-09-23T11:40:55.283Z,64.61
2022-09-23T11:43:28.584Z,65.56
2022-09-23T11:46:02.987Z,66.06
2022-09-23T11:48:38.811Z,66.34
2022-09-23T11:51:17.161Z,66.64
2022-09-23T11:54:11.248Z,66.48
2022-09-23T11:56:48.436Z,65.55
2022-09-23T12:00:00.442Z,64.89
2022-09-23T12:03:00.314Z,64.69
2022-09-23T12:05:47.385Z,65.12
2022-09-23T12:08:29.681Z,64.57
2022-09-23T12:11:15.975Z,64.59
2022-09-23T12:14:04.108Z,64.68
2022-09-23T12:17:09.247Z,63.62
2022-09-23T12:20:15.617Z,63.30
2022-09-23T12:23:37.869Z,62.78
2022-09-23T12:26:14.485Z,61.81
2022-09-23T12:28:45.695Z,59.83
2022-09-23T12:31:20.522Z,59.80
2022-09-23T12:33:51.169Z,59.09
2022-09-23T12:36:29.836Z,59.66
2022-09-23T12:39:17.299Z,60.39
2022-09-23T12:41:55.416Z,60.74
2022-09-23T12:44:32.752Z,61.03
2022-09-23T12:47:25.382Z,61.63
2022-09-23T12:49:56.555Z,61.07
2022-09-23T12:52:26.002Z,61.49
2022-09-23T12:55:19.080Z,61.52
2022-09-23T12:57:47.834Z,61.55
2022-09-23T13:00:27.460Z,62.21
2022-09-23T13:03:18.674Z,62.51
2022-09-23T13:06:17.681Z,62.71
2022-09-23T13:08:47.433Z,62.46
2022-09-23T13:11:30.741Z,62.12
2022-09-23T13:14:05.231Z,62.38
2022-09-23T13:16:38.113Z,62.62
2022-09-23T13:19:27.326Z,62.59
2022-09-23T13:22:07.941Z,63.22
2022-09-23T13:24:39.631Z,62.76
2022-09-23T13:27:26.843Z,62.39
2022-09-23T13:30:05.094Z,62.37
2022-09-23T13:32:39.873Z,60.80
2022-09-23T13:35:14.279Z,61.02
2022-09-23T13:37:50.085Z,62.40
2022-09-23T13:40:27.131Z,64.23
2022-09-23T13:43:03.222Z,64.65
2022-09-23T13:45:36.381Z,63.21
2022-09-23T13:48:09.597Z,61.08
2022-09-23T13:50:40.937Z,60.81
2022-09-23T13:53:11.743Z,60.44
2022-09-23T13:55:41.372Z,60.28
2022-09-23T13:58:21.147Z,60.69
2022-09-23T14:00:50.548Z,60.98
2022-09-23T14:03:36.137Z,61.05
2022-09-23T14:06:15.048Z,61.09
2022-09-23T14:08:49.063Z,59.85
2022-09-23T14:11:19.797Z,60.31
2022-09-23T14:13:55.229Z,59.33
2022-09-23T14:16:26.853Z,59.10
2022-09-23T14:19:00.307Z,59.25
2022-09-23T14:21:35.289Z,60.72
2022-09-23T14:24:16.476Z,60.73
2022-09-23T14:26:47.433Z,60.68
2022-09-23T14:29:18.540Z,60.81
2022-09-23T14:31:56.852Z,60.60
2022-09-23T14:35:00.872Z,61.01
2022-09-23T14:37:57.065Z,61.79
2022-09-23T14:40:28.361Z,61.21
2022-09-23T14:43:16.150Z,61.21
2022-09-23T14:45:48.116Z,61.68
2022-09-23T14:48:22.052Z,61.51
2022-09-23T14:50:55.670Z,60.95
2022-09-23T14:53:34.384Z,60.37
2022-09-23T14:56:09.705Z,61.03
2022-09-23T14:58:52.547Z,61.47
2022-09-23T15:01:39.442Z,62.01
2022-09-23T15:04:16.351Z,62.39
2022-09-23T15:07:07.608Z,62.29
2022-09-23T15:09:40.722Z,62.69
2022-09-23T15:12:14.814Z,62.05
2022-09-23T15:14:50.583Z,62.28
2022-09-23T15:17:24.972Z,62.94
2022-09-23T15:19:57.417Z,63.13
2022-09-23T15:22:26.303Z,63.30
2022-09-23T15:25:09.157Z,62.86
2022-09-23T15:27:37.361Z,63.17
2022-09-23T15:30:17.621Z,63.74
2022-09-23T15:32:47.074Z,63.77
2022-09-23T15:35:17.431Z,64.24
2022-09-23T15:37:48.102Z,64.15
2022-09-23T15:40:19.009Z,64.68
2022-09-23T15:42:51.690Z,65.03
2022-09-23T15:45:42.993Z,65.16
2022-09-23T15:48:18.047Z,65.66
2022-09-23T15:50:47.146Z,66.11
2022-09-23T15:53:18.110Z,65.82
2022-09-23T15:55:46.433Z,65.83
2022-09-23T15:58:14.549Z,66.05
2022-09-23T16:00:42.731Z,66.35
2022-09-23T16:03:14.400Z,66.66
2022-09-23T16:05:46.748Z,66.62
2022-09-23T16:08:15.167Z,66.75
2022-09-23T16:10:43.700Z,66.89
2022-09-23T16:13:13.987Z,67.11
2022-09-23T16:15:42.457Z,67.18
2022-09-23T16:18:11.827Z,67.33
2022-09-23T16:20:43.058Z,67.60
2022-09-23T16:23:38.941Z,67.72
2022-09-23T16:26:15.120Z,67.82
2022-09-23T16:28:44.661Z,68.20
2022-09-23T16:31:16.255Z,68.29
2022-09-23T16:33:49.109Z,68.56
2022-09-23T16:36:32.288Z,68.65
2022-09-23T16:39:04.433Z,68.72
2022-09-23T16:41:33.006Z,69.02
2022-09-23T16:44:04.539Z,68.90
2022-09-23T16:46:33.897Z,69.19
2022-09-23T16:49:03.083Z,69.27
2022-09-23T16:51:40.409Z,69.34
2022-09-23T16:54:12.039Z,69.62
2022-09-23T16:56:45.276Z,69.44
2022-09-23T16:59:14.869Z,69.69
2022-09-23T17:02:01.727Z,69.80
2022-09-23T17:04:30.146Z,69.82
2022-09-23T17:06:59.204Z,69.97
2022-09-23T17:09:29.178Z,69.97
2022-09-23T17:12:16.738Z,69.94
2022-09-23T17:14:44.759Z,70.06
2022-09-23T17:17:13.073Z,70.06
2022-09-23T17:19:41.556Z,70.20
2022-09-23T17:22:10.113Z,70.19
2022-09-23T17:24:38.215Z,70.39
2022-09-23T17:27:06.424Z,70.47
2022-09-23T17:29:34.721Z,70.59
2022-09-23T17:32:04.473Z,70.76
2022-09-23T17:34:33.488Z,70.84
2022-09-23T17:37:02.562Z,71.01
2022-09-23T17:39:31.740Z,70.98
2022-09-23T17:41:59.871Z,71.03
2022-09-23T17:44:28.127Z,70.95
2022-09-23T17:46:56.781Z,71.04
2022-09-23T17:49:25.058Z,71.26
2022-09-23T17:51:53.598Z,71.13
2022-09-23T17:54:22.574Z,71.18
2022-09-23T17:56:50.653Z,71.28
2022-09-23T17:59:19.452Z,71.41
2022-09-23T18:01:47.769Z,71.54
2022-09-23T18:04:15.869Z,71.66
2022-09-23T18:06:43.968Z,71.90
2022-09-23T18:09:12.574Z,72.06
2022-09-23T18:11:43.868Z,72.13
2022-09-23T18:14:16.064Z,72.34
2022-09-23T18:16:46.598Z,72.68
2022-09-23T18:19:17.799Z,73.03
2022-09-23T18:21:50.655Z,73.37
2022-09-23T18:24:35.258Z,73.57
2022-09-23T18:27:06.541Z,73.84
2022-09-23T18:29:35.862Z,73.81
2022-09-23T18:32:04.211Z,74.07
2022-09-23T18:34:33.258Z,73.95
2022-09-23T18:37:01.624Z,73.99
2022-09-23T18:39:30.006Z,74.13
2022-09-23T18:41:58.204Z,74.25
2022-09-23T18:44:26.801Z,74.31
2022-09-23T18:46:55.518Z,74.14
2022-09-23T18:49:41.990Z,74.36
2022-09-23T18:52:10.345Z,74.74
2022-09-23T18:54:38.447Z,74.84
2022-09-23T18:57:06.930Z,75.01
2022-09-23T18:59:35.316Z,75.01
2022-09-23T19:02:03.617Z,75.14
2022-09-23T19:04:32.113Z,75.15
2022-09-23T19:07:00.469Z,75.17
2022-09-23T19:09:28.558Z,75.17
2022-09-23T19:11:58.062Z,75.25
2022-09-23T19:14:26.880Z,75.20
2022-09-23T19:16:55.120Z,75.35
2022-09-23T19:19:23.314Z,75.32
2022-09-23T19:21:51.774Z,75.45
2022-09-23T19:24:21.064Z,75.48
2022-09-23T19:26:54.808Z,75.14
2022-09-23T19:29:23.497Z,75.03
2022-09-23T19:31:51.700Z,74.93
2022-09-23T19:34:24.012Z,75.41
2022-09-23T19:36:57.373Z,75.56
2022-09-23T19:39:28.592Z,75.55
2022-09-23T19:41:57.033Z,75.40
2022-09-23T19:44:28.443Z,75.53
2022-09-23T19:46:57.528Z,75.43
2022-09-23T19:49:26.449Z,75.29
2022-09-23T19:51:56.036Z,75.14
2022-09-23T19:54:27.538Z,75.04
2022-09-23T19:56:56.495Z,75.07
2022-09-23T19:59:26.396Z,74.95
2022-09-23T20:01:54.980Z,74.94
2022-09-23T20:04:23.630Z,75.04
2022-09-23T20:06:51.877Z,75.27
2022-09-23T20:09:20.334Z,75.32
2022-09-23T20:11:48.726Z,75.34
2022-09-23T20:14:17.888Z,75.32
2022-09-23T20:16:46.532Z,75.32
2022-09-23T20:19:15.106Z,75.25
2022-09-23T20:21:43.290Z,75.47
2022-09-23T20:24:12.569Z,75.72
2022-09-23T20:26:59.488Z,76.06
2022-09-23T20:29:27.734Z,76.09
2022-09-23T20:31:57.047Z,75.98
2022-09-23T20:34:25.138Z,75.84
2022-09-23T20:36:53.663Z,75.88
2022-09-23T20:39:22.314Z,76.07
2022-09-23T20:41:50.595Z,75.99
2022-09-23T20:44:18.996Z,75.73
2022-09-23T20:46:48.983Z,75.83
2022-09-23T20:49:17.852Z,76.21
2022-09-23T20:51:49.529Z,76.66
2022-09-23T20:54:19.165Z,76.88
2022-09-23T20:56:47.770Z,76.84
2022-09-23T20:59:18.278Z,76.88
2022-09-23T21:01:47.773Z,76.92
2022-09-23T21:04:16.289Z,77.05
2022-09-23T21:06:44.817Z,77.10
2022-09-23T21:09:13.177Z,77.22
2022-09-23T21:11:41.255Z,77.24
2022-09-23T21:14:09.692Z,77.10
2022-09-23T21:16:38.763Z,77.16
2022-09-23T21:19:09.591Z,77.08
2022-09-23T21:21:38.164Z,77.21
2022-09-23T21:24:35.985Z,77.48
2022-09-23T21:26:55.597Z,77.35
2022-09-23T21:29:23.927Z,77.49
2022-09-23T21:31:52.025Z,77.48
2022-09-23T21:34:20.532Z,77.57
2022-09-23T21:36:48.802Z,77.45
2022-09-23T21:39:17.035Z,77.52
2022-09-23T21:41:45.630Z,77.55
2022-09-23T21:44:15.251Z,77.52
2022-09-23T21:46:43.442Z,77.45
2022-09-23T21:49:12.153Z,77.68
2022-09-23T21:51:41.348Z,77.77
2022-09-23T21:54:17.342Z,77.81
2022-09-23T21:56:45.791Z,77.69
2022-09-23T21:59:13.834Z,77.68
2022-09-23T22:01:45.205Z,77.77
2022-09-23T22:04:17.223Z,77.75
2022-09-23T22:06:46.798Z,77.81
2022-09-23T22:09:20.458Z,77.92
2022-09-23T22:12:07.924Z,78.03
2022-09-23T22:14:36.983Z,77.92
2022-09-23T22:17:06.861Z,78.10
2022-09-23T22:19:40.250Z,78.43
2022-09-23T22:22:13.820Z,78.57
2022-09-23T22:24:46.985Z,78.68
2022-09-23T22:27:17.869Z,78.63
2022-09-23T22:30:04.877Z,78.76
2022-09-23T22:32:43.553Z,78.93
2022-09-23T22:35:19.644Z,79.12
2022-09-23T22:37:49.413Z,79.20
2022-09-23T22:40:17.642Z,79.20
2022-09-23T22:42:46.031Z,79.04
2022-09-23T22:45:14.645Z,78.87
2022-09-23T22:47:45.538Z,78.68
2022-09-23T22:50:15.136Z,78.89
2022-09-23T22:52:44.868Z,79.12
2022-09-23T22:55:13.295Z,79.43
2022-09-23T22:57:41.680Z,79.60
2022-09-23T23:00:12.596Z,79.29
2022-09-23T23:02:41.806Z,79.08
2022-09-23T23:05:10.553Z,79.39
2022-09-23T23:07:39.153Z,79.77
2022-09-23T23:10:10.531Z,80.09
2022-09-23T23:12:39.824Z,80.22
2022-09-23T23:15:11.702Z,80.31
2022-09-23T23:17:43.375Z,80.28
2022-09-23T23:20:11.861Z,80.15
2022-09-23T23:22:40.163Z,79.84
2022-09-23T23:25:09.928Z,79.90
2022-09-23T23:27:38.348Z,80.05
2022-09-23T23:30:08.376Z,80.19
2022-09-23T23:32:36.473Z,80.31
2022-09-23T23:35:05.394Z,80.41
2022-09-23T23:37:33.577Z,80.20
2022-09-23T23:40:02.219Z,80.29
2022-09-23T23:42:31.708Z,80.34
2022-09-23T23:44:59.907Z,80.44
2022-09-23T23:47:28.164Z,80.41
2022-09-23T23:49:56.657Z,80.47
2022-09-23T23:52:24.832Z,80.29
2022-09-23T23:54:53.212Z,80.37
2022-09-23T23:57:22.998Z,80.57
2022-09-23T23:59:59.469Z,80.46
